createdAt,value
2019-03-21T00:02:07.705Z,72.97
2019-03-21T00:04:41.970Z,73.11
2019-03-21T00:07:12.874Z,73.09
2019-03-21T00:10:03.836Z,73.07
2019-03-21T00:12:35.392Z,72.67
2019-03-21T00:15:28.270Z,73.38
2019-03-21T00:18:02.048Z,73.65
2019-03-21T00:20:30.614Z,74.21
2019-03-21T00:22:59.882Z,74.83
2019-03-21T00:25:28.849Z,75.21
2019-03-21T00:27:57.705Z,74.97
2019-03-21T00:30:27.863Z,75.33
2019-03-21T00:32:59.198Z,75.28
2019-03-21T00:35:28.136Z,75.51
2019-03-21T00:37:56.711Z,75.61
2019-03-21T00:40:36.453Z,74.87
2019-03-21T00:43:07.759Z,74.88
2019-03-21T00:45:36.819Z,74.86
2019-03-21T00:48:08.455Z,75.25
2019-03-21T00:50:37.037Z,75.47
2019-03-21T00:53:08.335Z,75.67
2019-03-21T00:55:49.204Z,75.73
2019-03-21T00:58:20.474Z,75.90
2019-03-21T01:01:00.667Z,76.48
2019-03-21T01:03:32.333Z,76.59
2019-03-21T01:06:00.915Z,77.00
2019-03-21T01:08:29.471Z,77.29
2019-03-21T01:10:58.053Z,77.49
2019-03-21T01:13:35.620Z,77.59
2019-03-21T01:16:04.465Z,77.20
2019-03-21T01:18:34.375Z,77.67
2019-03-21T01:21:02.961Z,77.75
2019-03-21T01:23:32.519Z,77.96
2019-03-21T01:26:07.216Z,78.18
2019-03-21T01:28:38.870Z,78.55
2019-03-21T01:31:11.909Z,78.77
2019-03-21T01:33:42.478Z,78.54
2019-03-21T01:36:11.057Z,79.06
2019-03-21T01:38:39.632Z,79.13
2019-03-21T01:41:12.958Z,79.22
2019-03-21T01:43:44.480Z,79.34
2019-03-21T01:46:19.081Z,79.21
2019-03-21T01:48:47.634Z,79.50
2019-03-21T01:51:16.686Z,79.44
2019-03-21T01:53:45.246Z,79.30
2019-03-21T01:56:13.841Z,79.47
2019-03-21T01:58:43.915Z,79.74
2019-03-21T02:01:15.656Z,79.92
2019-03-21T02:03:47.156Z,79.85
2019-03-21T02:06:18.490Z,80.33
2019-03-21T02:08:47.049Z,80.70
2019-03-21T02:11:15.637Z,80.39
2019-03-21T02:13:44.191Z,80.27
2019-03-21T02:16:15.492Z,80.46
2019-03-21T02:18:46.854Z,80.29
2019-03-21T02:21:15.447Z,80.90
2019-03-21T02:23:44.014Z,80.60
2019-03-21T02:26:18.484Z,80.44
2019-03-21T02:28:47.051Z,80.48
2019-03-21T02:31:18.541Z,80.64
2019-03-21T02:33:47.651Z,80.43
2019-03-21T02:36:16.247Z,80.33
2019-03-21T02:38:44.811Z,80.18
2019-03-21T02:41:17.156Z,80.51
2019-03-21T02:43:45.716Z,80.08
2019-03-21T02:46:14.367Z,80.65
2019-03-21T02:48:43.001Z,80.81
2019-03-21T02:51:14.817Z,80.66
2019-03-21T02:53:43.409Z,80.35
2019-03-21T02:56:15.016Z,80.58
2019-03-21T02:58:46.795Z,80.54
2019-03-21T03:01:18.178Z,80.49
2019-03-21T03:03:50.055Z,80.65
2019-03-21T03:06:18.632Z,80.60
2019-03-21T03:08:47.573Z,80.59
2019-03-21T03:11:19.542Z,80.95
2019-03-21T03:13:52.206Z,80.73
2019-03-21T03:16:22.534Z,80.76
2019-03-21T03:18:51.096Z,80.78
2019-03-21T03:21:19.638Z,80.80
2019-03-21T03:23:48.325Z,81.03
2019-03-21T03:26:16.884Z,81.30
2019-03-21T03:28:47.315Z,80.88
2019-03-21T03:31:18.963Z,81.05
2019-03-21T03:33:47.572Z,80.67
2019-03-21T03:36:16.800Z,80.64
2019-03-21T03:38:45.389Z,80.67
2019-03-21T03:41:16.871Z,80.65
2019-03-21T03:43:48.269Z,80.60
2019-03-21T03:46:16.847Z,81.22
2019-03-21T03:48:45.447Z,81.63
2019-03-21T03:51:13.999Z,81.23
2019-03-21T03:53:45.399Z,80.97
2019-03-21T03:56:13.956Z,80.41
2019-03-21T03:59:01.910Z,80.51
2019-03-21T04:01:30.929Z,80.22
2019-03-21T04:04:02.253Z,80.74
2019-03-21T04:06:30.890Z,80.26
2019-03-21T04:09:02.463Z,80.49
2019-03-21T04:11:31.015Z,81.01
2019-03-21T04:14:02.748Z,80.91
2019-03-21T04:16:31.310Z,80.61
2019-03-21T04:19:02.572Z,80.35
2019-03-21T04:21:31.130Z,81.43
2019-03-21T04:24:02.683Z,81.86
2019-03-21T04:26:36.121Z,82.00
2019-03-21T04:29:07.589Z,81.70
2019-03-21T04:31:36.151Z,81.01
2019-03-21T04:34:11.613Z,80.20
2019-03-21T04:36:40.186Z,80.73
2019-03-21T04:39:14.291Z,80.83
2019-03-21T04:41:45.096Z,80.88
2019-03-21T04:44:16.429Z,81.01
2019-03-21T04:46:44.983Z,80.53
2019-03-21T04:49:16.260Z,80.37
2019-03-21T04:51:47.958Z,80.22
2019-03-21T04:54:19.469Z,80.62
2019-03-21T04:56:50.733Z,81.35
2019-03-21T04:59:22.397Z,81.02
2019-03-21T05:01:53.915Z,81.33
2019-03-21T05:04:22.483Z,80.77
2019-03-21T05:06:51.064Z,80.42
2019-03-21T05:09:25.631Z,80.14
2019-03-21T05:11:54.211Z,80.70
2019-03-21T05:14:22.773Z,81.21
2019-03-21T05:16:51.354Z,81.07
2019-03-21T05:19:19.904Z,81.46
2019-03-21T05:21:48.493Z,81.12
2019-03-21T05:24:17.089Z,81.36
2019-03-21T05:26:45.668Z,81.48
2019-03-21T05:29:17.387Z,81.37
2019-03-21T05:31:46.069Z,81.59
2019-03-21T05:34:17.324Z,81.50
2019-03-21T05:36:45.917Z,81.54
2019-03-21T05:39:14.478Z,81.82
2019-03-21T05:41:44.614Z,82.30
2019-03-21T05:44:31.286Z,81.96
2019-03-21T05:46:59.870Z,82.40
2019-03-21T05:49:28.437Z,82.26
2019-03-21T05:51:57.412Z,82.20
2019-03-21T05:54:29.432Z,82.19
2019-03-21T05:56:58.023Z,82.03
2019-03-21T05:59:29.664Z,82.37
2019-03-21T06:02:00.959Z,82.21
2019-03-21T06:04:32.508Z,82.28
2019-03-21T06:07:09.956Z,82.36
2019-03-21T06:09:43.897Z,82.61
2019-03-21T06:12:12.548Z,82.09
2019-03-21T06:14:49.730Z,82.07
2019-03-21T06:17:21.052Z,82.19
2019-03-21T06:20:21.690Z,82.00
2019-03-21T06:22:59.217Z,82.67
2019-03-21T06:25:43.378Z,82.14
2019-03-21T06:28:11.953Z,82.04
2019-03-21T06:30:42.439Z,81.60
2019-03-21T06:33:11.385Z,81.75
2019-03-21T06:35:42.781Z,82.59
2019-03-21T06:38:15.902Z,82.25
2019-03-21T06:40:47.420Z,82.09
2019-03-21T06:43:16.009Z,82.37
2019-03-21T06:45:48.071Z,82.16
2019-03-21T06:48:17.651Z,81.86
2019-03-21T06:50:46.229Z,81.22
2019-03-21T06:53:17.473Z,80.88
2019-03-21T06:55:49.190Z,80.57
2019-03-21T06:58:20.638Z,80.71
2019-03-21T07:00:51.910Z,80.58
2019-03-21T07:03:23.618Z,80.97
2019-03-21T07:05:52.288Z,81.04
2019-03-21T07:08:23.877Z,80.55
2019-03-21T07:10:52.907Z,80.20
2019-03-21T07:13:21.490Z,80.89
2019-03-21T07:15:50.243Z,80.49
2019-03-21T07:18:18.878Z,80.27
2019-03-21T07:20:50.372Z,80.38
2019-03-21T07:23:18.991Z,80.15
2019-03-21T07:25:47.602Z,80.55
2019-03-21T07:28:16.222Z,80.80
2019-03-21T07:30:50.741Z,80.73
2019-03-21T07:33:22.234Z,80.02
2019-03-21T07:35:50.923Z,80.04
2019-03-21T07:38:19.979Z,80.20
2019-03-21T07:40:51.566Z,79.57
2019-03-21T07:43:22.287Z,79.28
2019-03-21T07:45:50.720Z,79.10
2019-03-21T07:48:19.310Z,79.20
2019-03-21T07:50:50.810Z,79.05
2019-03-21T07:53:22.400Z,78.94
2019-03-21T07:55:51.007Z,78.45
2019-03-21T07:58:22.588Z,78.70
2019-03-21T08:00:51.209Z,78.82
2019-03-21T08:03:22.987Z,78.92
2019-03-21T08:05:51.603Z,80.15
2019-03-21T08:08:20.219Z,78.85
2019-03-21T08:10:48.843Z,79.03
2019-03-21T08:13:20.633Z,78.60
2019-03-21T08:15:56.248Z,79.04
2019-03-21T08:18:24.963Z,79.42
2019-03-21T08:20:59.881Z,79.06
2019-03-21T08:23:27.017Z,78.68
2019-03-21T08:25:55.644Z,78.77
2019-03-21T08:28:33.173Z,78.44
2019-03-21T08:31:07.937Z,78.32
2019-03-21T08:33:36.556Z,78.04
2019-03-21T08:36:06.912Z,78.07
2019-03-21T08:38:37.587Z,78.60
2019-03-21T08:41:08.954Z,78.72
2019-03-21T08:43:37.576Z,78.82
2019-03-21T08:46:09.153Z,77.83
2019-03-21T08:48:42.324Z,78.35
2019-03-21T08:51:11.310Z,78.46
2019-03-21T08:53:39.917Z,77.72
2019-03-21T08:56:20.624Z,78.25
2019-03-21T08:58:51.157Z,78.55
2019-03-21T09:01:19.813Z,77.85
2019-03-21T09:03:48.413Z,78.20
2019-03-21T09:06:17.080Z,79.08
2019-03-21T09:08:46.040Z,78.34
2019-03-21T09:11:14.658Z,78.42
2019-03-21T09:13:46.644Z,79.04
2019-03-21T09:16:18.330Z,78.50
2019-03-21T09:18:49.599Z,78.42
2019-03-21T09:21:19.920Z,78.75
2019-03-21T09:23:48.562Z,78.44
2019-03-21T09:26:17.526Z,78.81
2019-03-21T09:28:49.723Z,78.18
2019-03-21T09:31:18.385Z,78.63
2019-03-21T09:33:47.409Z,78.16
2019-03-21T09:36:18.989Z,78.18
2019-03-21T09:38:50.359Z,77.90
2019-03-21T09:41:21.846Z,78.49
2019-03-21T09:43:52.733Z,78.58
2019-03-21T09:46:24.297Z,78.66
2019-03-21T09:48:53.258Z,77.86
2019-03-21T09:51:30.542Z,77.59
2019-03-21T09:53:52.299Z,77.89
2019-03-21T09:56:20.917Z,77.38
2019-03-21T09:58:49.535Z,76.69
2019-03-21T10:01:18.151Z,76.91
2019-03-21T10:03:49.385Z,75.64
2019-03-21T10:06:18.048Z,75.37
2019-03-21T10:08:49.325Z,75.46
2019-03-21T10:11:17.943Z,74.71
2019-03-21T10:13:46.891Z,75.15
2019-03-21T10:16:18.619Z,75.71
2019-03-21T10:18:47.451Z,75.02
2019-03-21T10:21:16.471Z,75.90
2019-03-21T10:23:45.079Z,76.54
2019-03-21T10:26:14.406Z,75.75
2019-03-21T10:28:45.985Z,75.51
2019-03-21T10:31:14.903Z,76.12
2019-03-21T10:33:43.462Z,75.33
2019-03-21T10:36:16.269Z,75.80
2019-03-21T10:38:47.694Z,76.08
2019-03-21T10:41:16.301Z,76.31
2019-03-21T10:43:47.676Z,76.49
2019-03-21T10:46:19.357Z,76.52
2019-03-21T10:48:48.015Z,76.48
2019-03-21T10:51:25.078Z,77.20
2019-03-21T10:53:53.688Z,76.71
2019-03-21T10:56:22.292Z,76.10
2019-03-21T10:58:50.905Z,76.43
2019-03-21T11:01:22.482Z,76.86
2019-03-21T11:03:53.957Z,77.11
2019-03-21T11:06:22.571Z,76.81
2019-03-21T11:08:51.177Z,75.76
2019-03-21T11:11:19.788Z,76.15
2019-03-21T11:13:51.277Z,74.81
2019-03-21T11:16:20.100Z,74.26
2019-03-21T11:18:51.687Z,74.28
2019-03-21T11:21:23.288Z,73.96
2019-03-21T11:23:51.908Z,73.89
2019-03-21T11:26:20.523Z,74.70
2019-03-21T11:28:49.139Z,75.09
2019-03-21T11:31:17.686Z,75.77
2019-03-21T11:33:46.605Z,75.93
2019-03-21T11:36:18.497Z,75.86
2019-03-21T11:38:47.087Z,74.61
2019-03-21T11:41:16.031Z,74.42
2019-03-21T11:43:47.396Z,75.27
2019-03-21T11:46:18.902Z,74.93
2019-03-21T11:48:47.490Z,75.25
2019-03-21T11:51:16.150Z,75.89
2019-03-21T11:53:47.737Z,76.08
2019-03-21T11:56:20.487Z,76.19
2019-03-21T11:58:52.981Z,75.31
2019-03-21T12:01:21.545Z,75.51
2019-03-21T12:03:54.811Z,76.34
2019-03-21T12:06:23.380Z,76.68
2019-03-21T12:08:51.964Z,76.25
2019-03-21T12:11:21.390Z,76.36
2019-03-21T12:13:52.972Z,76.54
2019-03-21T12:16:21.531Z,75.89
2019-03-21T12:18:53.284Z,76.13
2019-03-21T12:21:21.900Z,75.81
2019-03-21T12:23:50.500Z,74.83
2019-03-21T12:26:19.623Z,75.68
2019-03-21T12:28:51.207Z,75.29
2019-03-21T12:31:19.814Z,75.22
2019-03-21T12:33:54.053Z,75.15
2019-03-21T12:36:25.632Z,75.75
2019-03-21T12:38:54.194Z,75.45
2019-03-21T12:41:22.852Z,74.82
2019-03-21T12:43:54.638Z,74.12
2019-03-21T12:46:26.256Z,74.11
2019-03-21T12:48:54.930Z,74.00
2019-03-21T12:51:23.536Z,73.93
2019-03-21T12:53:54.908Z,74.67
2019-03-21T12:56:26.286Z,73.62
2019-03-21T12:58:57.558Z,74.02
2019-03-21T13:01:26.270Z,74.22
2019-03-21T13:03:54.878Z,74.58
2019-03-21T13:06:26.661Z,74.62
2019-03-21T13:08:58.042Z,75.36
2019-03-21T13:11:29.718Z,74.21
2019-03-21T13:13:58.326Z,74.07
2019-03-21T13:16:29.914Z,74.14
2019-03-21T13:19:01.178Z,74.24
2019-03-21T13:21:32.755Z,73.65
2019-03-21T13:24:01.773Z,74.22
2019-03-21T13:26:30.899Z,73.63
2019-03-21T13:29:05.772Z,73.27
2019-03-21T13:31:34.376Z,72.90
2019-03-21T13:34:03.306Z,72.94
2019-03-21T13:36:34.581Z,72.36
2019-03-21T13:39:04.739Z,72.69
2019-03-21T13:41:36.062Z,73.05
2019-03-21T13:44:07.703Z,72.40
2019-03-21T13:46:36.324Z,72.53
2019-03-21T13:49:06.128Z,72.27
2019-03-21T13:51:35.202Z,71.79
2019-03-21T13:54:04.232Z,72.63
2019-03-21T13:56:38.333Z,72.66
2019-03-21T13:59:09.459Z,71.46
2019-03-21T14:01:41.565Z,72.06
2019-03-21T14:04:13.254Z,71.44
2019-03-21T14:06:48.016Z,71.96
2019-03-21T14:09:20.453Z,71.31
2019-03-21T14:11:51.855Z,71.44
2019-03-21T14:14:20.514Z,71.53
2019-03-21T14:16:50.992Z,72.75
2019-03-21T14:19:22.341Z,71.86
2019-03-21T14:21:53.922Z,72.52
2019-03-21T14:24:25.489Z,72.04
2019-03-21T14:30:01.783Z,72.29
2019-03-21T14:32:34.997Z,72.67
2019-03-21T14:35:04.663Z,71.25
2019-03-21T14:37:36.179Z,72.04
2019-03-21T14:40:28.547Z,72.05
2019-03-21T14:42:57.157Z,72.65
2019-03-21T14:45:25.763Z,72.00
2019-03-21T14:47:57.345Z,72.01
2019-03-21T14:50:25.950Z,72.54
2019-03-21T14:52:54.562Z,72.82
2019-03-21T14:55:23.169Z,73.05
2019-03-21T14:57:51.783Z,73.08
2019-03-21T15:00:21.008Z,72.30
2019-03-21T15:02:52.683Z,73.38
2019-03-21T15:05:21.294Z,72.69
2019-03-21T15:07:52.976Z,71.05
2019-03-21T15:10:21.586Z,65.15
2019-03-21T15:12:50.196Z,64.38
2019-03-21T15:15:21.673Z,63.48
2019-03-21T15:17:50.690Z,64.62
2019-03-21T15:20:19.468Z,65.60
2019-03-21T15:22:50.985Z,66.48
2019-03-21T15:25:22.808Z,64.29
2019-03-21T15:27:51.480Z,65.19
2019-03-21T15:30:20.632Z,64.70
2019-03-21T15:32:56.586Z,64.49
2019-03-21T15:35:25.187Z,64.75
2019-03-21T15:37:58.909Z,65.99
2019-03-21T15:40:27.532Z,64.65
2019-03-21T15:42:57.114Z,65.57
2019-03-21T15:45:25.980Z,66.44
2019-03-21T15:47:54.689Z,66.77
2019-03-21T15:50:39.377Z,68.24
2019-03-21T15:53:08.006Z,69.04
2019-03-21T15:55:36.586Z,68.99
2019-03-21T15:58:08.320Z,69.06
2019-03-21T16:00:46.050Z,69.27
2019-03-21T16:03:17.402Z,69.93
2019-03-21T16:05:46.215Z,69.80
2019-03-21T16:08:17.507Z,70.15
2019-03-21T16:10:49.189Z,69.79
2019-03-21T16:13:17.753Z,71.27
2019-03-21T16:15:49.030Z,71.27
2019-03-21T16:18:17.610Z,72.03
2019-03-21T16:20:49.057Z,72.94
2019-03-21T16:23:19.654Z,73.19
2019-03-21T16:25:49.917Z,73.62
2019-03-21T16:28:20.174Z,73.53
2019-03-21T16:30:48.963Z,74.79
2019-03-21T16:33:17.585Z,74.69
2019-03-21T16:35:46.150Z,75.30
2019-03-21T16:38:17.436Z,75.25
2019-03-21T16:40:45.976Z,75.29
2019-03-21T16:43:14.608Z,75.95
2019-03-21T16:45:49.073Z,76.35
2019-03-21T16:48:17.663Z,76.79
2019-03-21T16:50:46.224Z,77.24
2019-03-21T16:53:14.817Z,77.71
2019-03-21T16:55:43.373Z,77.54
2019-03-21T16:58:14.635Z,78.06
2019-03-21T17:00:48.951Z,78.22
2019-03-21T17:03:17.542Z,78.34
2019-03-21T17:05:51.970Z,79.28
2019-03-21T17:08:20.738Z,79.75
2019-03-21T17:10:52.304Z,79.88
2019-03-21T17:13:20.896Z,80.32
2019-03-21T17:15:52.183Z,80.81
2019-03-21T17:18:20.784Z,80.84
2019-03-21T17:20:52.240Z,80.97
2019-03-21T17:23:20.899Z,81.22
2019-03-21T17:25:51.887Z,81.36
2019-03-21T17:28:20.473Z,81.58
2019-03-21T17:30:52.181Z,82.06
2019-03-21T17:33:23.841Z,82.31
2019-03-21T17:35:55.177Z,82.58
2019-03-21T17:38:26.807Z,83.08
2019-03-21T17:40:55.413Z,83.65
2019-03-21T17:43:24.026Z,84.65
2019-03-21T17:45:52.634Z,85.41
2019-03-21T17:48:21.244Z,86.00
2019-03-21T17:50:49.794Z,85.87
2019-03-21T17:53:21.083Z,85.86
2019-03-21T17:55:52.808Z,86.04
2019-03-21T17:58:21.448Z,86.08
2019-03-21T18:00:52.706Z,86.12
2019-03-21T18:03:21.734Z,86.11
2019-03-21T18:05:53.678Z,86.22
2019-03-21T18:08:25.426Z,86.35
2019-03-21T18:10:53.987Z,86.71
2019-03-21T18:13:22.533Z,87.10
2019-03-21T18:15:51.117Z,87.47
2019-03-21T18:18:20.015Z,88.07
2019-03-21T18:20:56.161Z,88.46
2019-03-21T18:23:24.723Z,88.71
2019-03-21T18:25:53.963Z,89.02
2019-03-21T18:28:22.520Z,89.33
2019-03-21T18:30:53.800Z,89.50
2019-03-21T18:33:22.358Z,89.62
2019-03-21T18:35:56.215Z,89.75
2019-03-21T18:38:24.776Z,90.03
2019-03-21T18:40:56.398Z,90.04
2019-03-21T18:43:24.937Z,90.08
2019-03-21T18:45:53.526Z,90.33
2019-03-21T18:48:22.086Z,90.45
2019-03-21T18:50:50.672Z,90.68
2019-03-21T18:53:19.217Z,90.96
2019-03-21T18:55:50.800Z,91.62
2019-03-21T18:58:19.754Z,91.90
2019-03-21T19:00:51.309Z,92.16
2019-03-21T19:03:19.873Z,92.48
2019-03-21T19:05:48.479Z,92.54
2019-03-21T19:08:17.037Z,92.52
2019-03-21T19:10:48.534Z,92.55
2019-03-21T19:13:17.084Z,92.94
2019-03-21T19:15:45.669Z,93.11
2019-03-21T19:18:14.843Z,93.02
2019-03-21T19:20:46.631Z,92.91
2019-03-21T19:23:15.202Z,92.81
2019-03-21T19:25:43.788Z,92.88
2019-03-21T19:28:14.308Z,93.18
2019-03-21T19:30:44.571Z,93.70
2019-03-21T19:33:19.541Z,93.79
2019-03-21T19:35:48.250Z,93.65
2019-03-21T19:38:19.250Z,93.65
2019-03-21T19:40:50.853Z,93.69
2019-03-21T19:43:22.334Z,93.76
2019-03-21T19:45:53.647Z,93.71
2019-03-21T19:48:25.290Z,94.07
2019-03-21T19:50:58.962Z,94.58
2019-03-21T19:53:30.186Z,94.65
2019-03-21T19:56:08.431Z,94.60
2019-03-21T19:58:36.253Z,94.36
2019-03-21T20:01:05.335Z,94.02
2019-03-21T20:03:36.898Z,93.89
2019-03-21T20:06:08.290Z,93.84
2019-03-21T20:08:38.065Z,93.93
2019-03-21T20:11:09.518Z,94.27
2019-03-21T20:13:38.463Z,94.72
2019-03-21T20:16:07.394Z,95.00
2019-03-21T20:18:35.947Z,95.24
2019-03-21T20:21:07.498Z,95.05
2019-03-21T20:23:39.179Z,94.93
2019-03-21T20:26:21.565Z,94.66
2019-03-21T20:28:50.106Z,94.20
2019-03-21T20:31:18.716Z,93.98
2019-03-21T20:33:47.282Z,94.31
2019-03-21T20:36:18.740Z,94.65
2019-03-21T20:38:47.306Z,95.01
2019-03-21T20:41:18.927Z,95.09
2019-03-21T20:43:47.488Z,95.21
2019-03-21T20:46:18.772Z,94.88
2019-03-21T20:48:46.601Z,94.96
2019-03-21T20:51:21.079Z,95.25
2019-03-21T20:53:52.360Z,95.55
2019-03-21T20:56:20.996Z,95.76
2019-03-21T20:58:49.522Z,95.95
2019-03-21T21:01:21.458Z,96.12
2019-03-21T21:03:50.020Z,96.18
2019-03-21T21:06:18.618Z,96.26
2019-03-21T21:08:52.724Z,96.40
2019-03-21T21:11:21.779Z,96.78
2019-03-21T21:13:50.340Z,97.19
2019-03-21T21:16:18.934Z,97.66
2019-03-21T21:18:47.505Z,98.09
2019-03-21T21:21:16.051Z,98.17
2019-03-21T21:23:44.653Z,98.25
2019-03-21T21:26:16.303Z,98.11
2019-03-21T21:28:44.871Z,98.44
2019-03-21T21:31:13.803Z,98.73
2019-03-21T21:33:45.417Z,98.77
2019-03-21T21:36:21.768Z,98.68
2019-03-21T21:38:47.253Z,98.53
2019-03-21T21:41:15.815Z,98.25
2019-03-21T21:43:44.395Z,97.93
2019-03-21T21:46:15.969Z,96.94
2019-03-21T21:48:44.545Z,96.94
2019-03-21T21:51:14.660Z,97.11
2019-03-21T21:53:45.905Z,97.20
2019-03-21T21:56:17.811Z,97.57
2019-03-21T21:58:47.522Z,98.24
2019-03-21T22:01:16.097Z,98.24
2019-03-21T22:03:49.401Z,97.85
2019-03-21T22:06:20.987Z,97.61
2019-03-21T22:08:49.584Z,97.85
2019-03-21T22:11:21.156Z,97.85
2019-03-21T22:13:50.150Z,98.42
2019-03-21T22:16:18.700Z,98.46
2019-03-21T22:18:47.298Z,98.46
2019-03-21T22:21:18.832Z,98.60
2019-03-21T22:23:47.406Z,98.86
2019-03-21T22:26:15.975Z,99.56
2019-03-21T22:28:44.599Z,99.56
2019-03-21T22:31:19.010Z,99.77
2019-03-21T22:33:50.600Z,99.90
2019-03-21T22:36:19.515Z,99.88
2019-03-21T22:38:51.254Z,99.89
2019-03-21T22:41:20.355Z,99.35
2019-03-21T22:43:49.278Z,99.38
2019-03-21T22:46:20.674Z,98.79
2019-03-21T22:48:49.611Z,98.03
2019-03-21T22:51:18.310Z,97.84
2019-03-21T22:53:46.897Z,97.82
2019-03-21T22:56:15.456Z,97.96
2019-03-21T22:58:44.039Z,98.32
2019-03-21T23:01:15.308Z,98.79
2019-03-21T23:03:51.841Z,98.98
2019-03-21T23:06:17.306Z,98.70
2019-03-21T23:08:45.890Z,98.40
2019-03-21T23:11:17.205Z,97.58
2019-03-21T23:13:45.786Z,97.58
2019-03-21T23:16:14.319Z,98.07
2019-03-21T23:18:43.049Z,98.07
2019-03-21T23:21:11.606Z,98.23
2019-03-21T23:23:42.467Z,98.33
2019-03-21T23:26:11.189Z,98.37
2019-03-21T23:28:39.771Z,98.57
2019-03-21T23:31:13.217Z,98.62
2019-03-21T23:33:44.452Z,98.59
2019-03-21T23:36:14.571Z,98.77
2019-03-21T23:38:49.073Z,98.88
2019-03-21T23:41:17.645Z,98.83
2019-03-21T23:43:46.231Z,98.60
2019-03-21T23:46:17.693Z,98.30
2019-03-21T23:48:53.302Z,98.30
2019-03-21T23:51:21.855Z,98.40
2019-03-21T23:53:50.949Z,98.40
2019-03-21T23:56:19.513Z,98.67
2019-03-21T23:58:50.927Z,98.53
